Time;durP1;ratioP1;P1;durP2;ratioP2;P2;SDS_P1;SDS_P2;PMS_P1;PMS_P2;Temp;Humidity;BMP_temperature;BMP_pressure;BME280_temperature;BME280_humidity;BME280_pressure;Samples;Min_cycle;Max_cycle;Signal;HPM_P1;HPM_P2
2022/04/17 00:00:13;;;;;;;17.48;10.18;;;2.70;98.30;;;;;;5208255;28;20467;-73
2022/04/17 00:02:46;;;;;;;18.63;11.02;;;2.60;98.70;;;;;;5215818;28;20041;-73
2022/04/17 00:05:18;;;;;;;17.23;10.45;;;2.60;99.00;;;;;;5219444;28;20072;-74
2022/04/17 00:07:51;;;;;;;15.30;10.35;;;2.50;99.10;;;;;;5214399;28;20469;-74
2022/04/17 00:10:23;;;;;;;20.50;11.73;;;2.50;99.10;;;;;;5214137;28;20052;-74
2022/04/17 00:12:56;;;;;;;22.63;12.32;;;2.40;99.20;;;;;;5194653;28;20049;-74
2022/04/17 00:15:28;;;;;;;21.40;11.40;;;2.40;99.40;;;;;;5215740;28;20445;-73
2022/04/17 00:18:01;;;;;;;16.08;9.70;;;2.30;99.90;;;;;;5211709;28;20055;-74
2022/04/17 00:20:33;;;;;;;17.20;10.27;;;2.30;99.90;;;;;;5214452;28;20036;-73
2022/04/17 00:23:06;;;;;;;19.65;11.05;;;2.30;99.90;;;;;;5217514;28;20040;-73
2022/04/17 00:25:38;;;;;;;19.45;10.68;;;2.20;99.90;;;;;;5218575;28;20071;-73
2022/04/17 00:28:11;;;;;;;19.20;11.27;;;2.20;99.90;;;;;;5204284;28;20051;-74
2022/04/17 00:30:44;;;;;;;18.63;11.18;;;2.20;99.90;;;;;;5215837;28;20047;-72
2022/04/17 00:33:16;;;;;;;21.48;12.10;;;2.30;99.90;;;;;;5222807;28;20509;-73
2022/04/17 00:35:49;;;;;;;23.08;10.85;;;2.30;99.90;;;;;;5214382;28;20056;-74
2022/04/17 00:38:21;;;;;;;18.08;10.05;;;2.30;99.90;;;;;;5213383;28;20056;-73
2022/04/17 00:40:54;;;;;;;18.13;11.48;;;2.20;99.90;;;;;;5210281;28;20044;-74
2022/04/17 00:43:30;;;;;;;18.90;11.10;;;2.30;99.90;;;;;;5214366;28;20056;-73
2022/04/17 00:46:02;;;;;;;18.88;10.65;;;2.20;99.90;;;;;;5201978;28;20735;-73
2022/04/17 00:48:34;;;;;;;16.40;10.90;;;2.20;99.90;;;;;;5201626;28;20045;-73
2022/04/17 00:51:08;;;;;;;15.10;10.25;;;2.20;99.90;;;;;;5209506;28;20049;-74
2022/04/17 00:53:45;;;;;;;18.23;11.32;;;2.20;99.90;;;;;;5208113;28;20064;-73
2022/04/17 00:56:17;;;;;;;18.48;10.82;;;2.20;99.90;;;;;;5223049;28;20045;-73
2022/04/17 00:58:50;;;;;;;15.90;10.93;;;2.10;99.90;;;;;;5201109;28;20041;-73
2022/04/17 01:01:24;;;;;;;16.58;10.45;;;2.10;99.90;;;;;;5211746;28;20041;-73
2022/04/17 01:03:57;;;;;;;17.92;10.77;;;2.10;99.90;;;;;;5211214;28;20056;-74
2022/04/17 01:06:34;;;;;;;17.42;10.60;;;2.10;99.90;;;;;;5212489;28;20049;-73
2022/04/17 01:09:06;;;;;;;17.55;10.45;;;2.10;99.90;;;;;;5204955;28;20059;-74
2022/04/17 01:11:39;;;;;;;17.07;11.33;;;2.00;99.90;;;;;;5211649;28;20642;-74
2022/04/17 01:14:12;;;;;;;19.13;11.17;;;2.00;99.90;;;;;;5211644;28;20048;-74
2022/04/17 01:16:44;;;;;;;15.63;10.45;;;1.90;99.90;;;;;;5212553;28;20049;-74
2022/04/17 01:19:17;;;;;;;19.95;11.25;;;1.90;99.90;;;;;;5214867;28;20060;-74
2022/04/17 01:21:49;;;;;;;19.70;10.43;;;1.90;99.90;;;;;;5214220;28;20389;-74
2022/04/17 01:27:14;;;;;;;17.85;10.75;;;1.90;99.90;;;;;;5203374;28;20445;-72
2022/04/17 01:29:47;;;;;;;29.48;11.27;;;1.90;99.90;;;;;;5203442;28;21106;-73
2022/04/17 01:32:19;;;;;;;17.05;10.75;;;1.80;99.90;;;;;;5202399;28;20053;-76
2022/04/17 01:34:52;;;;;;;18.05;10.10;;;1.80;99.90;;;;;;5207364;28;20053;-73
2022/04/17 01:37:25;;;;;;;18.23;10.68;;;1.90;99.90;;;;;;5191884;28;20340;-73
2022/04/17 01:39:57;;;;;;;20.80;10.95;;;1.90;99.90;;;;;;5196592;28;20883;-73
2022/04/17 01:42:29;;;;;;;16.70;10.88;;;1.90;99.90;;;;;;5207345;28;20041;-74
2022/04/17 01:45:02;;;;;;;17.30;11.02;;;1.90;99.90;;;;;;5198796;28;20065;-73
2022/04/17 01:47:35;;;;;;;12.95;8.70;;;1.90;99.90;;;;;;5211814;28;20424;-73
2022/04/17 01:50:08;;;;;;;16.65;10.05;;;1.80;99.90;;;;;;5209287;28;20060;-75
2022/04/17 01:52:40;;;;;;;14.18;9.23;;;1.90;99.90;;;;;;5206784;28;20053;-74
2022/04/17 01:55:12;;;;;;;15.05;9.65;;;1.90;99.90;;;;;;5206429;28;20037;-73
2022/04/17 01:57:45;;;;;;;14.60;10.10;;;1.80;99.90;;;;;;5206869;28;20037;-73
2022/04/17 02:00:17;;;;;;;15.95;9.73;;;1.90;99.90;;;;;;5201612;28;20048;-74
2022/04/17 02:02:50;;;;;;;12.63;8.52;;;1.90;99.90;;;;;;5205159;28;20056;-74
2022/04/17 02:05:23;;;;;;;18.17;10.32;;;1.90;99.90;;;;;;5207416;28;20047;-74
2022/04/17 02:07:55;;;;;;;20.98;9.07;;;1.90;99.90;;;;;;5208146;28;20045;-74
2022/04/17 02:10:28;;;;;;;13.80;8.55;;;1.90;99.90;;;;;;5203520;28;20568;-73
2022/04/17 02:13:00;;;;;;;15.48;9.50;;;1.90;99.90;;;;;;5200912;28;20048;-73
2022/04/17 02:15:33;;;;;;;14.07;9.13;;;1.90;99.90;;;;;;5202448;28;20496;-74
2022/04/17 02:18:05;;;;;;;20.80;9.60;;;1.90;99.90;;;;;;5214757;28;20052;-75
2022/04/17 02:20:38;;;;;;;18.02;9.18;;;1.90;99.90;;;;;;5197171;28;20041;-74
2022/04/17 02:23:10;;;;;;;13.15;9.18;;;1.80;99.90;;;;;;5203100;28;20526;-74
2022/04/17 02:25:43;;;;;;;14.68;9.63;;;1.80;99.90;;;;;;5205265;28;20152;-74
2022/04/17 02:28:16;;;;;;;16.15;9.15;;;1.90;99.90;;;;;;5204535;28;20048;-74
2022/04/17 02:30:49;;;;;;;14.00;9.07;;;1.80;99.90;;;;;;5208089;28;20067;-73
2022/04/17 02:33:21;;;;;;;15.20;9.43;;;1.70;99.90;;;;;;5198848;28;20045;-72
2022/04/17 02:35:54;;;;;;;14.68;10.10;;;1.70;99.90;;;;;;5190186;28;20048;-73
2022/04/17 02:38:27;;;;;;;15.07;8.98;;;1.60;99.90;;;;;;5195657;28;20049;-73
2022/04/17 02:40:59;;;;;;;16.63;9.65;;;1.60;99.90;;;;;;5189252;28;20040;-74
2022/04/17 02:43:32;;;;;;;15.43;9.38;;;1.60;99.90;;;;;;5199910;28;20526;-74
2022/04/17 02:46:04;;;;;;;17.38;9.23;;;1.70;99.90;;;;;;5207846;28;20105;-74
2022/04/17 02:48:37;;;;;;;12.77;8.65;;;1.70;99.90;;;;;;5215348;28;20048;-74
2022/04/17 02:51:11;;;;;;;15.25;9.48;;;1.80;99.90;;;;;;5214152;28;20048;-74
2022/04/17 02:53:43;;;;;;;14.85;9.48;;;1.70;99.90;;;;;;5203776;28;20049;-72
2022/04/17 02:56:16;;;;;;;13.02;8.85;;;1.70;99.90;;;;;;5204868;28;20170;-73
2022/04/17 02:58:50;;;;;;;14.20;9.40;;;1.60;99.90;;;;;;5219699;28;20044;-72
2022/04/17 03:07:06;;;;;;;16.90;9.70;;;1.60;99.90;;;;;;5203214;28;20053;-74
2022/04/17 03:09:39;;;;;;;12.88;9.45;;;1.60;99.90;;;;;;5202363;28;20197;-73
2022/04/17 03:12:11;;;;;;;16.05;9.88;;;1.60;99.90;;;;;;5198788;28;20371;-73
2022/04/17 03:14:46;;;;;;;17.63;10.32;;;1.50;99.90;;;;;;5199045;28;20878;-73
2022/04/17 03:17:18;;;;;;;15.27;9.95;;;1.40;99.90;;;;;;5206208;28;20051;-73
2022/04/17 03:19:52;;;;;;;17.30;9.93;;;1.30;99.90;;;;;;5205746;28;20048;-73
2022/04/17 03:22:27;;;;;;;14.90;9.45;;;1.20;99.90;;;;;;5205719;28;20032;-73
2022/04/17 03:25:01;;;;;;;16.27;9.10;;;1.20;99.90;;;;;;5202364;28;20048;-73
2022/04/17 03:27:33;;;;;;;19.13;9.88;;;1.10;99.90;;;;;;5203114;28;20041;-73
2022/04/17 03:30:06;;;;;;;16.50;10.35;;;1.10;99.90;;;;;;5212810;28;20476;-74
2022/04/17 03:32:38;;;;;;;13.45;9.15;;;1.10;99.90;;;;;;5217647;28;20056;-74
2022/04/17 03:35:12;;;;;;;17.33;9.63;;;1.10;99.90;;;;;;5225079;28;20057;-73
2022/04/17 03:37:45;;;;;;;;;;;1.10;99.90;;;;;;5216073;28;20049;-74
2022/04/17 03:40:17;;;;;;;17.17;10.30;;;1.00;99.90;;;;;;5223296;28;20531;-73
2022/04/17 03:42:50;;;;;;;17.85;10.25;;;1.00;99.90;;;;;;5224477;28;20099;-73
2022/04/17 03:45:22;;;;;;;15.68;9.98;;;1.10;99.90;;;;;;5217584;28;20049;-73
2022/04/17 03:47:55;;;;;;;15.27;9.80;;;1.10;99.90;;;;;;5216608;28;20049;-74
2022/04/17 03:50:27;;;;;;;15.65;10.07;;;1.00;99.90;;;;;;5223630;28;20047;-73
2022/04/17 03:53:00;;;;;;;15.38;9.43;;;1.00;99.90;;;;;;5216560;28;20521;-73
2022/04/17 03:55:33;;;;;;;14.48;9.23;;;1.00;99.90;;;;;;5218431;28;20033;-74
2022/04/17 03:58:05;;;;;;;15.27;9.35;;;1.00;99.90;;;;;;5210078;28;20059;-73
2022/04/17 04:00:38;;;;;;;14.48;9.77;;;1.00;99.90;;;;;;5197046;28;20072;-73
2022/04/17 04:03:12;;;;;;;15.52;9.02;;;1.00;99.90;;;;;;5207460;28;20033;-73
2022/04/17 04:05:44;;;;;;;19.67;10.07;;;1.00;99.90;;;;;;5221413;28;20053;-74
2022/04/17 04:08:16;;;;;;;12.57;8.55;;;1.00;99.90;;;;;;5216752;28;20061;-73
2022/04/17 04:10:49;;;;;;;15.70;9.63;;;0.90;99.90;;;;;;5208690;28;20077;-73
2022/04/17 04:13:21;;;;;;;15.68;9.82;;;0.90;99.90;;;;;;5216320;28;20052;-73
2022/04/17 04:15:57;;;;;;;15.77;10.13;;;0.90;99.90;;;;;;5204428;28;20048;-73
2022/04/17 04:18:30;;;;;;;14.65;9.45;;;0.90;99.90;;;;;;5206249;28;20056;-72
2022/04/17 04:21:03;;;;;;;16.33;9.85;;;0.80;99.90;;;;;;5215214;28;20532;-73
2022/04/17 04:23:36;;;;;;;18.60;10.48;;;0.80;99.90;;;;;;5221393;28;20064;-72
2022/04/17 04:26:08;;;;;;;14.73;10.10;;;0.80;99.90;;;;;;5211948;28;20045;-73
2022/04/17 04:28:41;;;;;;;15.93;10.43;;;0.80;99.90;;;;;;5214714;28;20858;-72
2022/04/17 04:31:17;;;;;;;17.45;9.88;;;0.80;99.90;;;;;;5217959;28;20467;-73
2022/04/17 04:33:49;;;;;;;13.85;8.80;;;0.80;99.90;;;;;;5209906;28;20068;-73
2022/04/17 04:36:22;;;;;;;16.40;10.13;;;0.80;99.90;;;;;;5216073;28;20940;-73
2022/04/17 04:38:54;;;;;;;16.88;10.90;;;0.80;99.90;;;;;;5205604;28;20056;-72
2022/04/17 04:41:27;;;;;;;15.40;10.70;;;0.80;99.90;;;;;;5207472;28;20056;-73
2022/04/17 04:43:59;;;;;;;14.43;9.43;;;0.80;99.90;;;;;;5207348;28;20055;-73
2022/04/17 04:46:32;;;;;;;15.77;9.65;;;0.80;99.90;;;;;;5209059;28;20057;-73
2022/04/17 04:52:03;;;;;;;14.77;9.65;;;0.80;99.90;;;;;;5216399;28;20547;-73
2022/04/17 04:54:36;;;;;;;18.48;10.25;;;0.70;99.90;;;;;;5196947;28;20052;-73
2022/04/17 04:57:08;;;;;;;17.20;10.00;;;0.80;99.90;;;;;;5206583;28;20052;-73
2022/04/17 04:59:41;;;;;;;17.25;10.00;;;0.80;99.90;;;;;;5211661;28;20373;-73
2022/04/17 05:02:14;;;;;;;14.85;9.60;;;0.80;99.90;;;;;;5188013;28;20528;-73
2022/04/17 05:04:46;;;;;;;19.83;10.77;;;0.80;99.90;;;;;;5173818;28;20048;-73
2022/04/17 05:07:18;;;;;;;14.60;9.75;;;0.90;99.90;;;;;;5192721;28;20040;-73
2022/04/17 05:09:51;;;;;;;15.65;9.38;;;0.90;99.90;;;;;;5189125;28;20052;-73
2022/04/17 05:12:23;;;;;;;17.83;10.25;;;0.90;99.90;;;;;;5182844;28;20052;-72
2022/04/17 05:14:56;;;;;;;16.27;10.18;;;1.00;99.90;;;;;;5199485;28;20416;-72
2022/04/17 05:17:28;;;;;;;14.00;9.43;;;1.10;99.90;;;;;;5178763;28;20088;-73
2022/04/17 05:20:01;;;;;;;14.70;9.65;;;1.20;99.90;;;;;;5182270;28;20045;-71
2022/04/17 05:22:33;;;;;;;19.67;10.75;;;1.20;99.90;;;;;;5185262;28;20053;-73
2022/04/17 05:25:06;;;;;;;17.05;11.38;;;1.20;99.90;;;;;;5175137;28;20049;-73
2022/04/17 05:27:39;;;;;;;16.95;11.02;;;1.30;99.90;;;;;;5169458;28;20361;-73
2022/04/17 05:30:12;;;;;;;15.77;10.52;;;1.40;99.90;;;;;;5172625;28;20649;-73
2022/04/17 05:32:44;;;;;;;14.25;9.13;;;1.50;99.90;;;;;;5178174;28;20048;-73
2022/04/17 05:35:17;;;;;;;17.92;11.68;;;1.60;99.90;;;;;;5187281;28;20044;-73
2022/04/17 05:37:49;;;;;;;15.07;10.18;;;1.70;99.90;;;;;;5180809;28;20055;-73
2022/04/17 05:40:22;;;;;;;16.58;9.35;;;1.80;99.90;;;;;;5181872;28;20052;-73
2022/04/17 05:42:56;;;;;;;15.07;10.00;;;1.80;99.90;;;;;;5173677;28;20033;-73
2022/04/17 05:45:28;;;;;;;15.93;10.55;;;1.90;99.90;;;;;;5190982;28;20036;-73
2022/04/17 05:48:02;;;;;;;13.90;9.52;;;2.00;99.90;;;;;;5191920;28;20040;-73
2022/04/17 05:50:36;;;;;;;15.38;10.35;;;2.10;99.90;;;;;;5179365;28;20342;-73
2022/04/17 05:53:09;;;;;;;17.25;10.32;;;2.20;99.90;;;;;;5184325;28;20045;-73
2022/04/17 05:55:41;;;;;;;15.23;9.90;;;2.30;99.90;;;;;;5181106;28;20045;-72
2022/04/17 05:58:14;;;;;;;18.48;10.65;;;2.40;99.90;;;;;;5175102;28;20044;-74
2022/04/17 06:00:47;;;;;;;15.55;9.70;;;2.50;99.90;;;;;;5177125;28;20572;-73
2022/04/17 06:03:19;;;;;;;16.53;10.50;;;2.60;99.90;;;;;;5188566;28;20045;-73
2022/04/17 06:05:52;;;;;;;18.13;10.03;;;2.70;99.90;;;;;;5182437;28;20049;-73
2022/04/17 06:08:25;;;;;;;15.00;10.18;;;2.80;99.90;;;;;;5189620;28;20052;-73
2022/04/17 06:10:59;;;;;;;12.60;8.85;;;2.90;99.90;;;;;;5175329;28;20060;-73
2022/04/17 06:13:31;;;;;;;;;;;3.00;99.90;;;;;;5190951;28;20993;-73
2022/04/17 06:16:04;;;;;;;17.80;10.85;;;3.10;99.90;;;;;;5190465;28;20486;-73
2022/04/17 06:18:37;;;;;;;13.88;9.77;;;3.30;99.90;;;;;;5184660;28;20048;-72
2022/04/17 06:21:11;;;;;;;12.52;9.48;;;3.50;99.30;;;;;;5201556;28;20055;-73
2022/04/17 06:23:44;;;;;;;17.25;9.68;;;3.60;97.70;;;;;;5185869;28;20053;-73
2022/04/17 06:26:16;;;;;;;14.60;8.73;;;3.70;97.60;;;;;;5191021;28;20045;-76
2022/04/17 06:28:49;;;;;;;13.70;9.45;;;3.90;96.40;;;;;;5197324;28;20452;-74
2022/04/17 06:31:21;;;;;;;13.95;9.25;;;4.10;95.60;;;;;;5199798;28;20055;-74
2022/04/17 06:33:53;;;;;;;15.88;8.95;;;4.30;94.70;;;;;;5197822;28;20048;-75
2022/04/17 06:36:30;;;;;;;15.50;9.48;;;4.40;94.40;;;;;;5187768;28;20060;-76
2022/04/17 06:39:03;;;;;;;13.45;9.15;;;4.50;93.60;;;;;;5210485;28;20259;-76
2022/04/17 06:41:36;;;;;;;15.43;8.93;;;4.60;93.40;;;;;;5196203;28;20048;-74
2022/04/17 06:44:11;;;;;;;14.57;9.47;;;4.70;92.90;;;;;;5178095;28;20512;-74
2022/04/17 06:46:44;;;;;;;16.35;9.00;;;4.80;92.30;;;;;;5179382;28;20045;-75
2022/04/17 06:49:16;;;;;;;13.65;9.27;;;4.90;92.00;;;;;;5162910;28;20870;-75
2022/04/17 06:51:49;;;;;;;14.32;8.35;;;5.10;91.80;;;;;;5169007;28;20048;-74
2022/04/17 06:54:21;;;;;;;13.35;9.38;;;5.30;91.10;;;;;;5178910;28;20072;-75
2022/04/17 06:56:54;;;;;;;13.85;8.73;;;5.50;90.10;;;;;;5178189;28;20075;-74
2022/04/17 06:59:26;;;;;;;10.27;7.82;;;5.80;88.30;;;;;;5183302;28;20044;-74
2022/04/17 07:01:59;;;;;;;11.35;7.88;;;6.00;86.10;;;;;;5191039;28;20048;-74
2022/04/17 07:04:31;;;;;;;12.07;7.80;;;6.10;83.30;;;;;;5185178;28;20955;-73
2022/04/17 07:07:04;;;;;;;10.07;7.15;;;6.30;82.00;;;;;;5190079;28;21319;-74
2022/04/17 07:09:36;;;;;;;9.80;6.80;;;6.50;78.90;;;;;;5181110;28;20049;-75
2022/04/17 07:12:09;;;;;;;8.02;6.22;;;6.60;77.70;;;;;;5204791;28;20060;-74
2022/04/17 07:14:42;;;;;;;7.97;6.18;;;6.70;75.20;;;;;;5208282;28;20915;-74
2022/04/17 07:17:14;;;;;;;9.43;7.03;;;6.80;74.20;;;;;;5204431;28;20447;-74
2022/04/17 07:19:47;;;;;;;8.85;6.05;;;6.90;73.60;;;;;;5200017;28;20048;-73
2022/04/17 07:22:22;;;;;;;9.57;6.28;;;7.10;73.10;;;;;;5198546;28;21547;-74
2022/04/17 07:25:00;;;;;;;14.75;6.05;;;7.30;71.30;;;;;;5197833;28;20593;-74
2022/04/17 07:27:42;;;;;;;12.57;6.35;;;7.50;69.70;;;;;;5191995;28;20049;-74
2022/04/17 07:30:18;;;;;;;7.28;5.90;;;7.50;67.90;;;;;;5200568;28;20412;-74
2022/04/17 07:32:53;;;;;;;11.48;5.88;;;7.60;67.90;;;;;;5206903;28;20053;-75
2022/04/17 07:35:28;;;;;;;7.50;5.63;;;7.80;68.40;;;;;;5163920;28;20511;-76
2022/04/17 07:38:03;;;;;;;7.70;5.68;;;8.00;66.90;;;;;;5201487;28;20044;-77
2022/04/17 07:40:36;;;;;;;7.50;5.60;;;7.90;64.70;;;;;;5205052;28;20053;-76
2022/04/17 07:43:08;;;;;;;8.27;5.77;;;7.80;65.20;;;;;;5203210;28;20036;-76
2022/04/17 07:45:40;;;;;;;7.18;5.32;;;7.80;64.60;;;;;;5199599;28;20072;-74
2022/04/17 07:48:13;;;;;;;8.57;5.40;;;7.80;65.20;;;;;;5198909;28;20059;-74
2022/04/17 07:50:46;;;;;;;12.20;4.82;;;8.00;65.20;;;;;;5204944;28;20053;-74
2022/04/17 07:53:18;;;;;;;6.93;5.00;;;8.10;65.10;;;;;;5206237;28;20049;-75
2022/04/17 07:55:51;;;;;;;8.45;6.22;;;8.10;64.60;;;;;;5201082;28;20060;-76
2022/04/17 07:58:35;;;;;;;7.35;4.90;;;8.10;63.90;;;;;;5208025;28;20638;-75
2022/04/17 08:01:11;;;;;;;9.07;5.45;;;8.00;63.90;;;;;;5198266;28;20037;-75
2022/04/17 08:06:20;;;;;;;10.05;5.25;;;8.30;63.80;;;;;;5207262;28;20037;-76
2022/04/17 08:08:53;;;;;;;8.07;4.57;;;8.40;63.00;;;;;;5204344;28;20044;-75
2022/04/17 08:11:31;;;;;;;7.80;5.47;;;8.40;62.70;;;;;;5212477;28;20049;-75
2022/04/17 08:14:03;;;;;;;7.88;5.68;;;8.50;64.00;;;;;;5201673;28;20069;-76
2022/04/17 08:16:36;;;;;;;9.30;5.35;;;8.60;63.60;;;;;;5200305;28;20051;-75
2022/04/17 08:19:08;;;;;;;7.05;5.20;;;8.70;63.50;;;;;;5194253;28;20053;-74
2022/04/17 08:21:41;;;;;;;7.38;5.20;;;8.80;63.40;;;;;;5198523;28;20044;-75
2022/04/17 08:24:13;;;;;;;8.40;5.38;;;8.80;61.90;;;;;;5201004;28;20059;-75
2022/04/17 08:26:46;;;;;;;8.95;5.50;;;8.80;62.70;;;;;;5204570;28;20986;-75
2022/04/17 08:29:19;;;;;;;7.50;5.18;;;8.80;62.30;;;;;;5199602;28;21182;-76
2022/04/17 08:31:51;;;;;;;7.30;4.60;;;8.90;62.20;;;;;;5198267;28;20063;-75
2022/04/17 08:34:24;;;;;;;12.48;5.35;;;9.00;62.20;;;;;;5197210;28;20063;-75
2022/04/17 08:36:56;;;;;;;7.35;5.05;;;8.90;61.80;;;;;;5209695;28;20296;-75
2022/04/17 08:39:29;;;;;;;6.72;4.90;;;8.90;61.60;;;;;;5196574;28;20600;-74
2022/04/17 08:42:04;;;;;;;12.38;4.80;;;9.10;62.10;;;;;;5206581;28;20156;-74
2022/04/17 08:44:36;;;;;;;6.93;4.82;;;9.10;60.10;;;;;;5201163;28;20075;-75
2022/04/17 08:47:09;;;;;;;7.82;4.95;;;9.00;60.10;;;;;;5189477;28;20061;-75
2022/04/17 08:49:43;;;;;;;7.72;5.18;;;8.90;59.70;;;;;;5193243;28;20409;-75
2022/04/17 08:52:17;;;;;;;11.63;5.57;;;8.90;60.20;;;;;;5199243;28;20541;-75
2022/04/17 08:54:50;;;;;;;12.10;5.53;;;9.00;61.80;;;;;;5196055;28;20867;-76
2022/04/17 08:57:23;;;;;;;7.18;5.00;;;8.90;61.40;;;;;;5201015;28;20058;-76
2022/04/17 08:59:56;;;;;;;6.45;5.07;;;8.90;61.10;;;;;;5182951;28;20401;-75
2022/04/17 09:02:28;;;;;;;8.25;5.45;;;9.00;61.20;;;;;;5187616;28;20048;-75
2022/04/17 09:05:06;;;;;;;9.10;5.63;;;9.00;60.30;;;;;;5203774;28;20056;-76
2022/04/17 09:07:50;;;;;;;6.70;5.50;;;8.90;60.10;;;;;;5193536;28;20048;-75
2022/04/17 09:10:31;;;;;;;7.80;5.15;;;8.90;61.10;;;;;;5198455;28;20056;-75
2022/04/17 09:13:04;;;;;;;7.00;4.47;;;9.00;61.20;;;;;;5197682;28;20385;-75
2022/04/17 09:15:37;;;;;;;7.70;4.82;;;9.10;59.80;;;;;;5204688;28;20523;-75
2022/04/17 09:18:09;;;;;;;6.30;4.80;;;9.20;59.90;;;;;;5194012;28;20048;-77
2022/04/17 09:20:47;;;;;;;8.50;5.30;;;9.20;59.00;;;;;;5189501;28;20053;-74
2022/04/17 09:23:40;;;;;;;8.60;4.88;;;9.20;59.20;;;;;;5191644;28;20048;-74
2022/04/17 09:26:15;;;;;;;5.53;4.40;;;9.20;56.90;;;;;;5195177;28;20455;-74
2022/04/17 09:28:48;;;;;;;11.32;5.50;;;9.30;58.30;;;;;;5198902;28;20060;-76
2022/04/17 09:31:25;;;;;;;5.97;4.53;;;9.30;59.00;;;;;;5197313;28;20041;-75
2022/04/17 09:34:07;;;;;;;8.57;5.10;;;9.40;59.10;;;;;;5198179;28;20057;-75
2022/04/17 09:36:39;;;;;;;9.48;5.18;;;9.50;57.30;;;;;;5193317;28;20045;-75
2022/04/17 09:39:14;;;;;;;6.75;5.22;;;9.50;59.10;;;;;;5199959;28;20516;-76
2022/04/17 09:41:58;;;;;;;7.43;5.50;;;9.50;58.60;;;;;;5202852;28;20136;-77
2022/04/17 09:44:45;;;;;;;6.80;5.50;;;9.50;59.00;;;;;;5191721;28;20382;-76
2022/04/17 09:47:26;;;;;;;8.45;5.65;;;9.50;59.20;;;;;;5200615;28;20040;-74
2022/04/17 09:50:13;;;;;;;9.82;5.55;;;9.60;59.10;;;;;;5198401;28;20049;-74
2022/04/17 09:52:52;;;;;;;8.60;5.07;;;9.50;59.00;;;;;;5205738;28;20049;-74
2022/04/17 09:55:27;;;;;;;7.88;4.75;;;9.50;57.50;;;;;;5204559;28;20041;-76
2022/04/17 09:58:00;;;;;;;7.88;5.78;;;9.50;57.80;;;;;;5213101;28;20045;-75
2022/04/17 10:00:41;;;;;;;9.27;5.43;;;9.50;59.00;;;;;;5198985;28;20049;-75
2022/04/17 10:03:14;;;;;;;7.53;6.28;;;9.50;57.50;;;;;;5196743;28;20041;-74
2022/04/17 10:05:47;;;;;;;9.30;5.60;;;9.50;57.70;;;;;;5191462;28;20753;-75
2022/04/17 10:08:20;;;;;;;6.63;5.65;;;9.40;58.00;;;;;;5191031;28;20049;-75
2022/04/17 10:10:57;;;;;;;8.18;5.03;;;9.40;57.80;;;;;;5193986;28;20453;-75
2022/04/17 10:13:33;;;;;;;5.90;5.10;;;9.40;57.40;;;;;;5187312;28;20048;-76
2022/04/17 10:16:09;;;;;;;8.30;5.20;;;9.60;57.70;;;;;;5185219;28;20045;-75
2022/04/17 10:18:47;;;;;;;9.77;5.38;;;9.60;56.50;;;;;;5211919;28;20048;-75
2022/04/17 10:21:23;;;;;;;9.85;5.25;;;9.60;57.20;;;;;;5193715;28;20049;-75
2022/04/17 10:24:02;;;;;;;7.20;4.60;;;9.60;56.10;;;;;;5209492;28;20048;-75
2022/04/17 10:26:41;;;;;;;11.27;4.90;;;9.70;56.40;;;;;;5202297;28;20041;-75
2022/04/17 10:29:31;;;;;;;7.68;5.93;;;9.80;57.00;;;;;;5187510;28;20056;-75
2022/04/17 10:32:28;;;;;;;;;;;9.80;56.20;;;;;;5196655;28;20060;-76
2022/04/17 10:35:26;;;;;;;9.13;5.47;;;9.80;56.60;;;;;;5202589;28;19925;-76
2022/04/17 10:38:20;;;;;;;9.65;5.70;;;9.90;57.90;;;;;;5207999;28;20052;-76
2022/04/17 10:41:02;;;;;;;5.30;4.68;;;9.90;56.90;;;;;;5202284;28;20037;-76
2022/04/17 10:43:56;;;;;;;6.03;4.35;;;10.20;57.20;;;;;;5205077;28;20045;-75
2022/04/17 10:46:29;;;;;;;7.03;4.38;;;10.40;55.00;;;;;;5192578;28;20045;-75
2022/04/17 10:49:02;;;;;;;9.70;5.13;;;10.50;55.30;;;;;;5198543;28;20045;-75
2022/04/17 10:51:38;;;;;;;6.72;5.32;;;10.60;55.60;;;;;;5197635;28;20053;-77
2022/04/17 10:54:14;;;;;;;7.07;5.20;;;10.50;55.20;;;;;;5196775;28;20914;-76
2022/04/17 10:56:53;;;;;;;7.28;5.40;;;10.50;54.50;;;;;;5192263;28;21055;-75
2022/04/17 10:59:31;;;;;;;4.90;4.40;;;10.50;54.60;;;;;;5198666;28;20448;-76
2022/04/17 11:02:07;;;;;;;7.43;4.70;;;10.80;55.20;;;;;;5193571;28;20233;-75
2022/04/17 11:04:56;;;;;;;6.75;5.30;;;11.00;54.00;;;;;;5210458;28;20052;-75
2022/04/17 11:07:30;;;;;;;5.30;3.78;;;11.00;54.30;;;;;;5202426;28;20063;-77
2022/04/17 11:10:20;;;;;;;5.05;4.38;;;11.10;52.70;;;;;;5185127;28;20445;-77
2022/04/17 11:12:54;;;;;;;8.52;5.03;;;11.20;52.30;;;;;;5202823;28;20056;-76
2022/04/17 11:15:29;;;;;;;7.90;4.72;;;11.40;53.60;;;;;;5202522;28;20641;-76
2022/04/17 11:18:10;;;;;;;8.00;4.70;;;11.80;54.90;;;;;;5221724;28;21871;-77
2022/04/17 11:20:51;;;;;;;5.63;5.03;;;12.30;53.10;;;;;;5210523;28;20045;-77
2022/04/17 11:23:48;;;;;;;6.50;4.10;;;12.60;50.60;;;;;;5211111;28;20044;-76
2022/04/17 11:26:53;;;;;;;5.85;4.10;;;12.90;49.00;;;;;;5213795;28;20056;-76
2022/04/17 11:29:43;;;;;;;8.77;4.75;;;13.30;49.50;;;;;;5201703;28;20468;-76
2022/04/17 11:32:19;;;;;;;5.03;3.80;;;13.50;49.50;;;;;;5205995;28;20427;-76
2022/04/17 11:34:57;;;;;;;9.13;4.50;;;13.90;49.80;;;;;;5213247;28;20509;-78
2022/04/17 11:37:31;;;;;;;6.15;4.63;;;14.00;48.80;;;;;;5220646;28;20041;-76
2022/04/17 11:40:16;;;;;;;5.88;3.78;;;14.00;49.30;;;;;;5209811;28;20041;-76
2022/04/17 11:42:53;;;;;;;8.50;4.72;;;14.50;48.90;;;;;;5191713;28;20056;-76
2022/04/17 11:45:28;;;;;;;5.03;3.65;;;14.80;47.20;;;;;;5213592;28;20045;-75
2022/04/17 11:48:04;;;;;;;;;;;14.80;47.20;;;;;;5216654;28;20049;-76
2022/04/17 11:50:40;;;;;;;6.15;4.50;;;14.80;43.90;;;;;;5213683;28;20308;-75
2022/04/17 11:53:17;;;;;;;4.30;3.40;;;14.70;46.00;;;;;;5208361;28;20045;-77
2022/04/17 11:55:50;;;;;;;4.47;3.75;;;14.50;46.40;;;;;;5212215;28;20045;-75
2022/04/17 11:58:28;;;;;;;4.80;3.78;;;14.70;47.30;;;;;;5216065;28;20056;-77
2022/04/17 12:01:07;;;;;;;5.80;3.72;;;14.90;46.60;;;;;;5212899;28;20050;-77
2022/04/17 12:03:45;;;;;;;5.65;3.97;;;15.00;46.20;;;;;;5205173;28;20693;-77
2022/04/17 12:06:26;;;;;;;5.97;3.70;;;15.50;45.50;;;;;;5196758;28;20048;-76
2022/04/17 12:08:58;;;;;;;7.03;3.47;;;15.40;43.40;;;;;;5202422;28;20045;-75
2022/04/17 12:11:33;;;;;;;6.20;3.33;;;15.30;45.30;;;;;;5189804;28;20056;-74
2022/04/17 12:14:06;;;;;;;3.72;3.38;;;15.40;45.50;;;;;;5188208;28;20905;-74
2022/04/17 12:16:58;;;;;;;;;;;15.80;45.10;;;;;;5183968;28;20053;-75
2022/04/17 12:19:31;;;;;;;5.38;3.50;;;15.50;41.40;;;;;;5197910;28;19950;-75
2022/04/17 12:22:24;;;;;;;5.47;3.75;;;15.60;45.50;;;;;;5215622;28;20047;-76
2022/04/17 12:24:58;;;;;;;2.95;2.60;;;15.70;43.10;;;;;;5210162;28;20045;-75
2022/04/17 12:27:32;;;;;;;6.73;3.70;;;15.80;45.10;;;;;;5206940;28;20056;-75
2022/04/17 12:30:17;;;;;;;4.82;3.80;;;15.90;45.00;;;;;;5192115;28;20303;-76
2022/04/17 12:32:50;;;;;;;3.88;3.38;;;16.20;43.60;;;;;;5215175;28;20618;-75
2022/04/17 12:35:32;;;;;;;3.70;3.35;;;16.00;44.10;;;;;;5218857;28;20068;-75
2022/04/17 12:38:09;;;;;;;4.72;2.95;;;15.90;43.40;;;;;;5207383;28;20053;-75
2022/04/17 12:40:49;;;;;;;4.60;3.40;;;16.10;44.60;;;;;;5219351;28;20049;-75
2022/04/17 12:43:22;;;;;;;5.93;3.00;;;16.30;43.30;;;;;;5218600;28;20056;-75
2022/04/17 12:46:01;;;;;;;4.93;3.73;;;16.20;44.00;;;;;;5214677;28;20067;-75
2022/04/17 12:48:35;;;;;;;5.18;4.00;;;16.30;44.10;;;;;;5218768;28;20045;-75
2022/04/17 12:51:11;;;;;;;6.45;4.07;;;16.40;44.00;;;;;;5205898;28;20072;-75
2022/04/17 12:53:43;;;;;;;4.53;3.38;;;16.60;44.50;;;;;;5208411;28;20052;-75
2022/04/17 12:56:18;;;;;;;5.97;3.90;;;17.00;43.40;;;;;;5201999;28;20096;-75
2022/04/17 12:58:57;;;;;;;5.55;3.88;;;17.20;43.10;;;;;;5212718;28;22055;-75
2022/04/17 13:01:45;;;;;;;6.88;4.13;;;16.90;43.20;;;;;;5215914;28;20049;-76
2022/04/17 13:04:20;;;;;;;5.15;3.70;;;16.90;43.20;;;;;;5216560;28;20045;-75
2022/04/17 13:07:13;;;;;;;4.05;3.30;;;16.80;43.50;;;;;;5208858;28;20983;-74
2022/04/17 13:09:53;;;;;;;5.28;3.22;;;16.70;41.90;;;;;;5217628;28;20120;-74
2022/04/17 13:12:36;;;;;;;6.60;3.47;;;16.40;42.50;;;;;;5200938;28;20511;-75
2022/04/17 13:15:11;;;;;;;6.17;3.47;;;16.40;42.60;;;;;;5212385;28;20056;-75
2022/04/17 13:17:48;;;;;;;10.60;3.95;;;16.10;43.30;;;;;;5230345;28;20055;-75
2022/04/17 13:20:23;;;;;;;5.05;3.50;;;16.00;43.50;;;;;;5210951;28;20048;-76
2022/04/17 13:22:56;;;;;;;8.15;3.45;;;15.90;43.50;;;;;;5216892;28;20087;-75
2022/04/17 13:25:30;;;;;;;;;;;16.00;44.10;;;;;;5215259;28;20045;-75
2022/04/17 13:28:08;;;;;;;5.22;3.47;;;16.00;41.60;;;;;;5213076;28;19936;-75
2022/04/17 13:30:40;;;;;;;7.20;3.60;;;16.00;43.40;;;;;;5188947;28;20055;-75
2022/04/17 13:33:14;;;;;;;4.38;3.58;;;16.10;43.30;;;;;;5203402;28;20052;-75
2022/04/17 13:35:48;;;;;;;6.32;3.53;;;15.90;44.10;;;;;;5205149;28;20049;-74
2022/04/17 13:38:22;;;;;;;6.20;3.87;;;16.00;44.60;;;;;;5199282;28;20060;-77
2022/04/17 13:40:55;;;;;;;4.53;3.78;;;15.90;44.30;;;;;;5211886;28;20052;-75